Weather observations for the past three days for
Portage County Airport
Imperial (Metric)
Date Time (edt) Wind (mph) Vis. (mi.) Weather Sky Cond. Temperature (ºF) Relative Humidity Wind Chill (°F) Heat Index (°F) Pressure Precipitation (in)
Air Dwpt 6 hour altimeter (in) sea level (mb) 1 hr 3 hr 6 hr
Max. Min.
01 05:15 SW 5 10.00 Partly Cloudy SCT120 74.1 68.4 82% 30.03 0.0
01 04:55 W 3 10.00 Partly Cloudy SCT110 73.6 68 83% 30.04 0.0
01 04:35 Calm 10.00 Partly Cloudy SCT110 72.7 68 85% 30.04 0.0
01 04:15 Calm 10.00 Partly Cloudy SCT100 71.8 67.8 87% 30.04 0.0
01 03:55 Calm 10.00 Mostly Cloudy BKN100 73 67.8 84% 30.04 0.0
01 03:35 Calm 10.00 Mostly Cloudy BKN100 73.2 67.6 83% 30.04 0.0
01 03:15 Calm 10.00 Partly Cloudy SCT100 73 67.5 83% 30.04 0.0
01 02:55 SW 3 10.00 Mostly Cloudy BKN100 72.5 68 86% 30.04 0.0
01 02:35 Calm 10.00 Overcast OVC100 71.8 68.2 88% 30.05 0.0
01 02:15 Calm 10.00 Overcast OVC100 71.6 68.7 91% 30.05 0.0
01 01:55 Calm 10.00 Overcast OVC110 71.1 68.5 92% 30.05 0.0
01 01:35 Calm 10.00 Mostly Cloudy BKN110 70 68.2 94% 30.06 0.0
01 01:15 Calm 10.00 Partly Cloudy SCT110 69.1 67.6 95% 30.06 0.0
01 00:55 Calm 7.00 Partly Cloudy SCT110 68.9 67.5 95% 30.06 0.0
01 00:35 Calm 7.00 Partly Cloudy SCT120 69.6 68 95% 30.06 0.0
01 00:15 Calm 10.00 Partly Cloudy SCT070 SCT100 70.2 68.7 95% 30.06 0.0
31 23:55 Calm 7.00 Partly Cloudy SCT100 SCT120 68.9 67.3 95% 30.06 0.0
31 23:35 Calm 7.00 Partly Cloudy SCT120 69.3 67.5 94% 30.06 0.0
31 23:15 Calm 10.00 Fair CLR 70.2 68 93% 30.05 0.0
31 22:55 Calm 7.00 Fair CLR 70.3 67.8 92% 30.05 0.0
31 22:35 SW 5 7.00 Fair CLR 72.7 68.7 87% 30.05 0.0
31 22:15 SW 3 7.00 Fair CLR 71.6 69.1 92% 30.05 0.0
31 21:55 Calm 10.00 Fair CLR 72 69.1 91% 30.06 0.0
31 21:35 Calm 10.00 Light Rain CLR 72.3 69.8 92% 30.06 0.0
31 21:15 Calm 10.00 Fair CLR 72.5 69.3 90% 30.05 0.0
31 20:55 Calm 7.00 Partly Cloudy SCT120 72.1 69.8 92% 30.06 0.0
31 20:35 Calm 7.00 Partly Cloudy SCT042 SCT120 73.2 70.7 92% 30.06 0.0
31 20:15 Calm 7.00 Partly Cloudy SCT040 SCT120 73.8 70.9 91% 30.07 0.0
31 19:55 Calm 7.00 Partly Cloudy SCT120 74.3 70.3 88% 30.07 0.0
31 19:35 SW 3 7.00 Fair CLR 75 70.3 85% 75 30.06 0.0
31 19:15 SW 3 5.00 Fog/Mist CLR 75.4 71.2 87% 75 30.06 0.0
31 18:55 Calm 7.00 Fair CLR 77.2 71.1 81% 79 30.06 0.0
31 18:35 Calm 7.00 Fair CLR 78.6 71.1 78% 81 30.07 0.0
31 18:15 Calm 7.00 Partly Cloudy SCT044 SCT050 78.8 71.4 78% 82 30.07 0.0
31 17:55 Calm 5.00 Partly Cloudy with Haze SCT046 SCT050 81.5 68.5 65% 85 30.08 0.0
31 17:35 W 3 7.00 Partly Cloudy SCT047 SCT050 82.4 68.7 63% 86 30.07 0.0
31 17:15 W 5 7.00 Fair CLR 84.4 67.1 56% 87 30.08 0.0
31 16:55 NW 3 5.00 Fair with Haze CLR 84.2 66.7 56% 87 30.07 0.0
31 16:35 Calm 7.00 Fair CLR 83.7 68.5 60% 87 30.07 0.0
31 16:15 NW 3 7.00 Fair CLR 79.2 69.6 73% 82 30.07 0.0
31 15:55 W 3 7.00 Light Rain CLR 81.7 66.2 60% 84 30.07 0.0
31 15:35 W 6 7.00 Fair CLR 83.8 66 55% 86 30.08 0.0
31 15:15 W 8 7.00 Fair CLR 84 65.7 54% 86 30.09 0.0
31 14:55 W 9 G 16 7.00 Fair CLR 85.5 66.6 53% 88 30.1 0.0
31 14:35 W 10 7.00 Fair CLR 84.6 66.4 55% 87 30.1 0.0
31 14:15 W 7 7.00 Fair CLR 84.2 66.9 56% 87 30.1 0.0
31 13:55 W 7 7.00 Fair CLR 82.6 66 57% 85 30.1 0.0
31 13:35 W 6 7.00 Fair CLR 82.9 64.9 55% 85 30.1 0.0
31 12:55 W 6 7.00 Fair CLR 82.6 64 54% 84 30.11 0.0
31 12:35 W 6 7.00 Fair CLR 83.3 64.9 54% 85 30.11 0.0
31 12:15 W 6 10.00 Fair CLR 82.4 66 58% 85 30.11 0.0
31 11:35 W 6 5.00 Fair with Haze CLR 80.8 67.3 64% 83 30.11 0.0
31 11:15 W 6 7.00 Fair CLR 80.6 68 66% 83 30.12 0.0
31 10:55 W 8 7.00 Fair CLR 80.1 69.1 69% 83 30.11 0.0
31 10:35 Calm 10.00 Fair CLR 77.2 69.6 78% 79 30.12 0.0
31 10:15 W 3 10.00 Fair CLR 73.4 68.7 85% 30.11 0.0
31 09:55 SW 3 10.00 Fair CLR 72.5 68.2 86% 30.11 0.0
31 09:35 Calm 7.00 Partly Cloudy SCT090 70.9 68.4 92% 30.11 0.0
31 09:15 Calm 7.00 Overcast OVC090 69.8 67.3 92% 30.12 0.0
31 08:55 Calm 10.00 Mostly Cloudy BKN100 69.3 67.1 93% 30.12 0.0 0.02
31 08:35 Calm 10.00 Partly Cloudy SCT047 SCT110 68.9 66.6 92% 30.11 0.0 0.02
31 08:15 Calm 7.00 Light Rain CLR 68.2 66.2 93% 30.11 0.0 0.02
31 07:55 Calm 7.00 Partly Cloudy SCT085 SCT110 67.6 65.8 94% 30.12 0.0
31 07:35 Calm 5.00 Light Rain SCT060 SCT085 SCT095 66.9 65.3 95% 30.12 0.0
31 07:15 Calm 5.00 Fog/Mist CLR 67.1 65.1 93% 30.11 0.0
31 06:55 Calm 7.00 Partly Cloudy SCT047 SCT120 68 65.3 91% 30.1 0.0
31 06:35 Calm 10.00 Mostly Cloudy SCT047 BKN110 68.4 65.5 91% 30.1 0.0
31 06:15 Calm 10.00 Partly Cloudy SCT047 SCT110 68 65.3 91% 30.1 0.0
31 05:55 Calm 10.00 Overcast OVC110 68 65.3 91% 30.1 0.0
31 05:35 Calm 10.00 Overcast OVC100 68.2 65.5 91% 30.1 0.0
31 05:15 Calm 10.00 Overcast OVC100 68 65.7 92% 30.1 0.0
31 04:55 Calm 10.00 Mostly Cloudy BKN110 67.6 65.5 93% 30.1 0.0
31 04:35 Calm 10.00 Mostly Cloudy SCT090 BKN120 67.6 65.7 93% 30.1 0.0
31 04:15 Calm 10.00 Partly Cloudy SCT100 SCT120 67.5 65.7 94% 30.1 0.0
31 03:55 Calm 7.00 Partly Cloudy SCT120 67.5 65.7 94% 30.1 0.0
31 03:35 Calm 10.00 Partly Cloudy SCT080 SCT120 67.5 65.7 94% 30.1 0.0
31 03:15 Calm 10.00 Overcast SCT080 OVC090 67.5 66 95% 30.1 0.0
31 02:55 SE 5 7.00 Mostly Cloudy SCT080 BKN090 67.3 65.8 95% 30.11 0.0
31 02:35 Calm 7.00 Overcast SCT080 OVC090 67.3 65.7 95% 30.11 0.0
31 02:15 SE 3 7.00 Overcast BKN080 OVC100 67.3 65.7 95% 30.11 0.0
31 01:55 SE 3 10.00 Overcast OVC080 67.5 65.8 95% 30.11 0.0
31 01:35 E 3 10.00 Overcast OVC080 67.5 65.8 95% 30.12 0.0
31 01:15 SE 6 10.00 Overcast OVC090 67.6 66.2 95% 30.12 0.0
31 00:55 E 5 7.00 Overcast BKN080 OVC100 67.3 65.8 95% 30.13 0.0
31 00:35 E 5 7.00 Overcast OVC080 67.6 65.8 94% 30.13 0.0
31 00:15 NE 6 10.00 Overcast SCT090 OVC110 68 66.2 94% 30.14 0.0
30 23:55 SE 5 10.00 Overcast OVC110 68 66.2 94% 30.12 0.0
30 23:35 SE 3 10.00 Partly Cloudy SCT110 68 66 93% 30.13 0.0
30 23:15 SE 3 10.00 Mostly Cloudy BKN120 68 65.8 93% 30.14 0.0
30 22:55 SE 3 10.00 Mostly Cloudy SCT085 BKN110 68 65.7 92% 30.14 0.0
30 22:35 SE 5 10.00 Mostly Cloudy SCT085 BKN100 68 65.8 93% 30.14 0.0
30 22:15 E 6 10.00 Overcast OVC090 68 66.2 94% 30.15 0.0
30 21:55 E 5 10.00 Overcast OVC090 68.2 66.4 94% 30.15 0.0
30 21:35 E 6 7.00 Overcast SCT075 OVC090 68.4 66.7 95% 30.16 0.0
30 21:15 E 3 7.00 Overcast BKN070 OVC085 68.5 66.7 94% 30.15 0.0
30 20:55 Calm 10.00 Overcast OVC070 68.9 66.9 93% 30.15 0.0
30 20:35 E 3 10.00 Mostly Cloudy BKN075 69.3 67.1 93% 30.14 0.0
30 20:15 NE 5 10.00 Light Rain SCT055 SCT070 SCT090 70 67.1 91% 30.14 0.0
30 19:55 E 3 10.00 Overcast BKN090 OVC110 70.5 67.1 89% 30.12 0.0
30 19:35 E 3 10.00 Mostly Cloudy BKN110 70.7 67.1 88% 30.12 0.0
30 19:15 NE 5 10.00 Light Rain SCT120 71.1 67.6 89% 30.11 0.0
30 18:55 NE 5 10.00 Partly Cloudy SCT110 72.1 68.2 87% 30.1 0.0
30 18:35 E 6 10.00 Fair CLR 73.6 68.7 85% 30.09 0.0
30 18:15 Calm 10.00 Fair CLR 73.9 68.5 83% 30.1 0.0
30 17:55 Calm 10.00 Fair CLR 74.3 68 81% 30.1 0.0
30 17:35 Calm 10.00 Fair CLR 73.8 68.2 83% 30.1 0.0
30 17:15 Calm 10.00 Fair CLR 73.6 67.3 81% 30.11 0.0
30 16:55 Calm 10.00 Light Drizzle CLR 73.2 67.6 83% 30.11 0.0
30 16:35 Calm 10.00 Light Rain SCT031 SCT039 SCT047 73 67.8 84% 30.11 0.0
30 16:15 Calm 10.00 Light Rain SCT036 SCT044 73.4 65.5 76% 30.12 0.0
30 15:55 Calm 10.00 Light Drizzle CLR 73.8 65.3 75% 30.13 0.0
30 15:35 Calm 10.00 Light Rain CLR 73.9 65.1 74% 30.13 0.0
30 15:15 Calm 10.00 Fair CLR 74.8 63.1 67% 30.15 0.0
30 14:55 W 3 10.00 Fair CLR 75.4 63.5 67% 77 30.15 0.0
30 14:35 W 3 5.00 Fair with Haze CLR 75.7 62.8 64% 78 30.16 0.0
30 14:15 W 6 5.00 Fair with Haze CLR 74.5 62.2 66% 30.17 0.0
30 13:55 W 5 7.00 Light Rain CLR 72.9 63.3 72% 30.17 0.0
30 13:35 W 5 5.00 Fair with Haze CLR 72.7 64.6 76% 30.18 0.0
30 13:15 W 7 5.00 Fair with Haze CLR 72.5 64.4 76% 30.19 0.0
30 12:55 W 5 10.00 Partly Cloudy SCT037 SCT044 72 65.5 80% 30.19 0.0
30 12:35 W 3 10.00 Light Rain SCT030 SCT037 BKN055 71.6 65.3 81% 30.2 0.0
30 12:15 Calm 7.00 Light Rain SCT032 SCT041 BKN075 71.2 64.4 79% 30.19 0.0
30 11:35 Calm 7.00 Partly Cloudy SCT050 70.7 65.3 83% 30.19 0.0
30 11:15 Calm 10.00 Light Rain SCT044 BKN050 BKN070 70.7 64.4 81% 30.19 0.0
30 10:55 Calm 7.00 Light Rain SCT046 SCT050 BKN070 70 64.6 83% 30.18 0.0
30 10:35 Calm 5.00 Mostly Cloudy with Haze BKN100 69.1 64.4 85% 30.17 0.0
30 10:15 Calm 7.00 Mostly Cloudy BKN100 70.7 63 77% 30.16 0.0
30 09:55 Calm 5.00 Partly Cloudy with Haze SCT110 70.7 61.7 73% 30.15 0.0
30 09:35 Calm 7.00 Fair CLR 70 61.2 74% 30.15 0.0
30 09:15 Calm 7.00 Fair CLR 69.1 60.6 75% 30.15 0.0
30 08:55 Calm 5.00 Fair with Haze CLR 69.1 60.3 74% 30.15 0.0
30 08:35 Calm 5.00 Fair with Haze CLR 68.4 60.6 76% 30.15 0.0
30 08:15 Calm 5.00 Partly Cloudy with Haze SCT100 67.6 60.1 77% 30.15 0.0
30 07:55 Calm 10.00 Fair CLR 64.6 60.3 86% 30.15 0.0
30 07:35 Calm 7.00 Partly Cloudy SCT110 62.6 60.6 93% 30.14 0.0
30 07:15 Calm 10.00 Mostly Cloudy BKN110 62.6 60.3 92% 30.15 0.0
30 06:55 Calm 10.00 Mostly Cloudy BKN110 62.6 60.3 92% 30.14 0.0
30 06:35 Calm 10.00 Mostly Cloudy BKN120 62.2 59.9 92% 30.15 0.0
30 06:15 Calm 10.00 Partly Cloudy SCT060 SCT120 62.2 59.9 92% 30.15 0.0
30 05:55 Calm 10.00 Fair CLR 62.2 59.5 91% 30.15 0.0
30 05:35 Calm 10.00 Partly Cloudy SCT120 62.8 59.5 89% 30.15 0.0
30 05:15 Calm 10.00 Partly Cloudy SCT120 64.8 58.1 79% 30.14 0.0
30 04:55 Calm 10.00 Fair CLR 63.7 58.3 83% 30.14 0.0
30 04:35 Calm 10.00 Fair CLR 62.2 59.2 90% 30.15 0.0
30 04:15 Calm 10.00 Fair CLR 61.7 59.9 94% 30.15 0.0
30 03:55 Calm 10.00 Fair CLR 61.3 59.4 93% 30.15 0.0
30 03:35 Calm 10.00 Fair CLR 61.3 59.4 93% 30.15 0.0
30 03:15 Calm 10.00 Fair CLR 61.2 59.4 94% 30.16 0.0
30 02:55 Calm 10.00 Fair CLR 61 59.4 94% 30.17 0.0
30 02:35 Calm 10.00 Fair CLR 60.6 58.8 94% 30.17 0.0
30 02:15 Calm 10.00 Fair CLR 60.4 59 95% 30.17 0.0
30 01:55 Calm 10.00 Fair CLR 59.9 58.6 96% 30.17 0.0
30 01:35 Calm 10.00 Fair CLR 59.9 58.5 95% 30.17 0.0
30 01:15 Calm 10.00 Fair CLR 60.1 59 96% 30.17 0.0
30 00:55 Calm 10.00 Fair CLR 59.4 58.3 96% 30.17 0.0
30 00:35 Calm 10.00 Fair CLR 58.5 57.2 96% 30.17 0.0
30 00:15 Calm 10.00 Fair CLR 59 57.7 96% 30.16 0.0
29 23:55 Calm 10.00 Fair CLR 59.7 57.9 94% 30.17 0.0
29 23:35 Calm 10.00 Fair CLR 59.5 57.4 93% 30.16 0.0
29 23:15 Calm 7.00 Fair CLR 60.8 59.2 94% 30.17 0.0
29 22:55 Calm 10.00 Fair CLR 60.3 58.5 94% 30.17 0.0
29 22:35 Calm 10.00 Fair CLR 60.8 59 94% 30.17 0.0
29 22:15 Calm 10.00 Fair CLR 61.2 59.2 93% 30.17 0.0
29 21:55 Calm 10.00 Fair CLR 61.7 59 91% 30.17 0.0
29 21:35 Calm 7.00 Fair CLR 62.6 59.9 91% 30.17 0.0
29 21:15 Calm 7.00 Fair CLR 63 59.9 90% 30.17 0.0
29 20:55 Calm 7.00 Fair CLR 64.4 60.8 88% 30.15 0.0
29 20:35 Calm 7.00 Fair CLR 64.2 60.4 88% 30.17 0.0
29 20:15 Calm 7.00 Fair CLR 64.8 61 88% 30.16 0.0
29 19:55 Calm 7.00 Fair CLR 66 61.2 84% 30.17 0.0
29 19:35 Calm 5.00 Fair with Haze CLR 66.7 61.2 82% 30.17 0.0
29 19:15 Calm 7.00 Fair CLR 67.5 61.9 82% 30.17 0.0
29 18:55 Calm 7.00 Fair CLR 69.3 62.8 80% 30.17 0.0
29 18:35 Calm 7.00 Fair CLR 70.7 63.9 79% 30.17 0.0
29 18:15 Calm 5.00 Fair with Haze CLR 73.8 59.5 61% 30.18 0.0
29 17:35 SE 3 7.00 Fair CLR 77.2 54 45% 79 30.18 0.0
29 17:15 SE 3 7.00 Fair CLR 76.8 51.1 41% 78 30.18 0.0
29 16:55 S 3 7.00 Fair CLR 78.6 52.2 40% 79 30.19 0.0
29 16:35 SE 5 7.00 Fair CLR 79.7 51.8 38% 80 30.19 0.0
29 16:15 SE 3 5.00 Fair with Haze CLR 78.6 52.7 41% 79 30.19 0.0
29 15:55 S 5 7.00 Fair CLR 78.4 49.5 36% 79 30.2 0.0
29 15:35 S 3 7.00 Fair CLR 78.8 50.7 38% 79 30.2 0.0
29 15:15 S 6 7.00 Fair CLR 78.8 49.8 36% 79 30.21 0.0
29 14:55 S 5 5.00 Fair with Haze CLR 78.6 51.1 38% 79 30.21 0.0
29 14:35 SE 6 7.00 Fair CLR 77.9 52.5 41% 79 30.22 0.0
29 14:15 Calm 5.00 Fair with Haze CLR 77.2 50.2 39% 78 30.22 0.0
29 13:55 S 3 5.00 Fair with Haze CLR 77 51.1 40% 78 30.23 0.0
29 13:35 S 3 7.00 Fair CLR 77.4 53.2 43% 79 30.24 0.0
29 13:15 SE 5 5.00 Fair with Haze CLR 77 51.8 42% 78 30.25 0.0
29 12:55 SE 5 7.00 Fair CLR 75.6 51.4 43% 78 30.25 0.0
29 12:35 S 3 7.00 Fair CLR 75 50.2 42% 78 30.26 0.0
29 12:15 Calm 7.00 Fair CLR 74.7 51.4 44% 30.26 0.0
29 11:55 Calm 5.00 Fair with Haze CLR 73.9 52.5 47% 30.25 0.0
29 11:35 S 5 5.00 Fair with Haze CLR 73 51.3 46% 30.26 0.0
29 11:15 Calm 5.00 Fair with Haze CLR 72 52.3 50% 30.26 0.0
29 10:55 SE 5 5.00 Fair with Haze CLR 70.7 50.7 49% 30.27 0.0
29 10:35 Calm 7.00 Fair CLR 69.8 52 53% 30.27 0.0
29 10:15 SE 6 7.00 Fair CLR 68.2 52.5 57% 30.27 0.0
29 09:55 Calm 7.00 Fair CLR 66.7 52.3 60% 30.26 0.0
29 09:35 Calm 7.00 Fair CLR 64.9 52.2 63% 30.26 0.0
29 09:15 Calm 10.00 Fair CLR 62.8 52.5 69% 30.26 0.0
29 08:55 SE 5 10.00 Fair CLR 61.5 51.8 71% 30.26 0.0
29 08:35 SE 3 10.00 Fair CLR 59.4 51.4 75% 30.25 0.0
29 08:15 Calm 10.00 Fair CLR 57.6 51.1 79% 30.25 0.0
29 07:55 Calm 10.00 Fair CLR 54.1 51.8 92% 30.25 0.0
29 07:35 Calm 10.00 Fair CLR 51.3 49.6 94% 30.25 0.0
29 07:15 Calm 10.00 Fair CLR 50.2 48.7 95% 30.25 0.0
29 06:55 Calm 10.00 Fair CLR 51.3 49.6 94% 30.24 0.0
29 06:35 Calm 10.00 Fair CLR 50 47.8 92% 30.23 0.0
29 06:15 Calm 10.00 Fair CLR 50.9 48.6 92% 30.23 0.0
29 05:55 E 3 10.00 Fair CLR 50.2 48.4 94% 30.23 0.0
29 05:35 E 3 10.00 Fair CLR 50 48.2 94% 30.23 0.0
Date Time (edt) Wind (mph) Vis. (mi.) Weather Sky Cond. Air Dwpt Max. Min. Relative Humidity Wind Chill (°F) Heat Index (°F) altimeter (in) sea level (mb) 1 hr 3 hr 6 hr
6 hour
Temperature (ºF) Pressure Precipitation (in)